Time;durP1;ratioP1;P1;durP2;ratioP2;P2;SDS_P1;SDS_P2;PMS_P1;PMS_P2;Temp;Humidity;BMP_temperature;BMP_pressure;BME280_temperature;BME280_humidity;BME280_pressure;Samples;Min_cycle;Max_cycle;Signal;HPM_P1;HPM_P2
2022/04/30 00:00:43;;;;;;;4.20;3.00;;;24.80;34.30;;;;;;5052150;28;20431;-70
2022/04/30 00:03:09;;;;;;;4.28;3.00;;;24.80;34.40;;;;;;5052179;28;20386;-70
2022/04/30 00:05:36;;;;;;;4.57;2.95;;;24.80;34.40;;;;;;5051509;28;20441;-67
2022/04/30 00:08:04;;;;;;;4.75;3.10;;;24.70;34.30;;;;;;5051930;28;20397;-65
2022/04/30 00:10:32;;;;;;;3.83;3.00;;;24.80;34.40;;;;;;5050578;28;20409;-69
2022/04/30 00:12:57;;;;;;;4.53;3.27;;;24.80;34.40;;;;;;5052078;28;20389;-68
2022/04/30 00:15:23;;;;;;;3.67;2.70;;;24.80;34.40;;;;;;5051627;28;20779;-66
2022/04/30 00:17:51;;;;;;;5.13;2.93;;;24.70;34.30;;;;;;5051490;28;20389;-65
2022/04/30 00:20:17;;;;;;;4.00;2.72;;;24.70;34.30;;;;;;5051735;28;20579;-65
2022/04/30 00:22:43;;;;;;;4.78;3.20;;;24.70;34.40;;;;;;5051898;28;20429;-65
2022/04/30 00:25:10;;;;;;;3.70;3.17;;;24.70;34.40;;;;;;5051709;28;20421;-66
2022/04/30 00:27:35;;;;;;;3.25;2.95;;;24.70;34.40;;;;;;5051829;28;20386;-69
2022/04/30 00:30:02;;;;;;;5.00;3.00;;;24.70;34.40;;;;;;5051319;28;20393;-65
2022/04/30 00:32:29;;;;;;;4.05;2.70;;;24.70;34.40;;;;;;5051646;28;20723;-66
2022/04/30 00:34:55;;;;;;;4.40;2.90;;;24.70;34.40;;;;;;5051611;28;20400;-65
2022/04/30 00:37:21;;;;;;;5.23;3.00;;;24.70;34.40;;;;;;5049814;28;20383;-65
2022/04/30 00:39:46;;;;;;;3.65;3.10;;;24.70;34.30;;;;;;5051018;28;20417;-69
2022/04/30 00:42:12;;;;;;;3.73;2.90;;;24.70;34.20;;;;;;5051444;28;20507;-65
2022/04/30 00:44:38;;;;;;;4.40;3.03;;;24.70;34.10;;;;;;5051228;28;20543;-65
2022/04/30 00:47:04;;;;;;;4.13;3.17;;;24.70;34.10;;;;;;5050853;28;20378;-65
2022/04/30 00:49:30;;;;;;;5.55;3.58;;;24.70;34.10;;;;;;5051345;28;20388;-65
2022/04/30 00:52:01;;;;;;;3.27;2.90;;;24.70;34.20;;;;;;5050893;28;20393;-71
2022/04/30 00:54:32;;;;;;;3.80;3.35;;;24.70;34.20;;;;;;5051396;28;20389;-65
2022/04/30 00:57:03;;;;;;;3.53;2.93;;;24.70;34.10;;;;;;5051283;28;20384;-65
2022/04/30 00:59:30;;;;;;;4.15;2.70;;;24.70;34.10;;;;;;5051188;28;20979;-66
2022/04/30 01:01:59;;;;;;;3.53;2.70;;;24.70;34.70;;;;;;5050875;28;20932;-65
2022/04/30 01:04:25;;;;;;;3.83;3.20;;;24.70;34.10;;;;;;5051211;28;20512;-64
2022/04/30 01:06:52;;;;;;;4.23;3.07;;;24.70;34.20;;;;;;5051185;28;20390;-65
2022/04/30 01:09:28;;;;;;;4.40;2.83;;;24.70;34.20;;;;;;5051020;28;20390;-65
2022/04/30 01:11:59;;;;;;;3.95;2.80;;;24.70;34.10;;;;;;5050778;28;20401;-65
2022/04/30 01:14:31;;;;;;;3.47;2.97;;;24.70;34.10;;;;;;5049928;28;20419;-65
2022/04/30 01:17:02;;;;;;;3.30;2.78;;;24.60;34.10;;;;;;5050993;28;20881;-65
2022/04/30 01:19:28;;;;;;;3.22;2.92;;;24.60;34.10;;;;;;5051060;28;20428;-64
2022/04/30 01:21:59;;;;;;;4.43;2.90;;;24.60;34.10;;;;;;5050660;28;20877;-65
2022/04/30 01:24:26;;;;;;;3.65;2.80;;;24.60;34.10;;;;;;5051017;28;20480;-65
2022/04/30 01:26:53;;;;;;;4.63;3.13;;;24.60;34.10;;;;;;5051178;28;20484;-65
2022/04/30 01:29:20;;;;;;;3.45;2.88;;;24.60;34.00;;;;;;5051068;28;20393;-65
2022/04/30 01:37:25;;;;;;;3.53;3.00;;;24.60;34.10;;;;;;5050958;28;20434;-65
2022/04/30 01:40:03;;;;;;;4.10;2.80;;;24.60;34.10;;;;;;5049176;28;20421;-64
2022/04/30 01:42:37;;;;;;;4.03;2.90;;;24.50;34.10;;;;;;5050987;28;20374;-66
2022/04/30 01:45:05;;;;;;;4.15;2.90;;;24.50;34.10;;;;;;5049687;28;20397;-65
2022/04/30 01:47:35;;;;;;;4.43;2.90;;;24.50;34.10;;;;;;5050888;28;20421;-65
2022/04/30 01:50:01;;;;;;;4.60;3.10;;;24.50;34.10;;;;;;5051322;28;20484;-65
2022/04/30 01:52:26;;;;;;;4.30;2.70;;;24.50;34.10;;;;;;5054589;28;20941;-65
2022/04/30 01:54:52;;;;;;;3.50;2.65;;;24.50;34.10;;;;;;5054618;28;20434;-65
2022/04/30 01:57:25;;;;;;;3.53;2.87;;;24.50;34.10;;;;;;5053245;28;20394;-65
2022/04/30 01:59:55;;;;;;;3.55;2.80;;;24.50;34.10;;;;;;5053778;28;20425;-65
2022/04/30 02:02:23;;;;;;;3.30;2.70;;;24.50;34.00;;;;;;5053899;28;20389;-65
2022/04/30 02:04:51;;;;;;;3.50;2.58;;;24.50;34.00;;;;;;5054495;28;20876;-65
2022/04/30 02:07:18;;;;;;;3.65;2.60;;;24.50;34.00;;;;;;5054035;28;20385;-67
2022/04/30 02:09:44;;;;;;;4.07;2.50;;;24.50;33.90;;;;;;5053433;28;20409;-65
2022/04/30 02:12:10;;;;;;;3.70;2.55;;;24.50;34.00;;;;;;5054029;28;20374;-65
2022/04/30 02:14:37;;;;;;;3.03;2.73;;;24.50;34.00;;;;;;5054203;28;20386;-65
2022/04/30 02:17:06;;;;;;;4.13;2.60;;;24.50;34.00;;;;;;5053904;28;20476;-65
2022/04/30 02:20:18;;;;;;;3.30;2.78;;;24.50;33.90;;;;;;5054252;28;20574;-69
2022/04/30 02:22:21;;;;;;;3.80;2.92;;;24.50;33.90;;;;;;5053939;28;20473;-69
2022/04/30 02:24:48;;;;;;;4.13;2.90;;;24.50;33.90;;;;;;5052833;28;20398;-65
2022/04/30 02:27:15;;;;;;;3.40;2.70;;;24.50;33.90;;;;;;5053969;28;20386;-65
2022/04/30 02:29:40;;;;;;;3.65;2.50;;;24.40;34.00;;;;;;5054030;28;20393;-66
2022/04/30 02:32:06;;;;;;;3.63;2.70;;;24.40;34.10;;;;;;5052111;28;20711;-65
2022/04/30 02:34:34;;;;;;;3.65;2.80;;;24.40;34.00;;;;;;5053932;28;20435;-65
2022/04/30 02:37:01;;;;;;;4.18;2.33;;;24.40;34.00;;;;;;5053845;28;20800;-65
2022/04/30 02:39:26;;;;;;;3.00;2.65;;;24.40;34.10;;;;;;5052492;28;20503;-65
2022/04/30 02:41:52;;;;;;;2.90;2.57;;;24.40;34.00;;;;;;5053047;28;20412;-64
2022/04/30 02:44:18;;;;;;;3.80;2.70;;;24.40;33.90;;;;;;5052301;28;20377;-66
2022/04/30 02:46:44;;;;;;;4.03;2.50;;;24.40;34.00;;;;;;5053681;28;20396;-65
2022/04/30 02:49:09;;;;;;;4.32;3.00;;;24.40;34.00;;;;;;5053570;28;20424;-65
2022/04/30 02:51:35;;;;;;;4.03;2.80;;;24.40;34.10;;;;;;5053562;28;20389;-65
2022/04/30 02:54:00;;;;;;;3.20;2.70;;;24.40;33.90;;;;;;5053119;28;20395;-65
2022/04/30 02:56:27;;;;;;;3.40;2.80;;;24.40;34.00;;;;;;5053399;28;20381;-65
2022/04/30 03:01:36;;;;;;;3.40;2.88;;;24.40;33.90;;;;;;5052936;28;20393;-65
2022/04/30 03:04:05;;;;;;;3.50;2.80;;;24.40;34.00;;;;;;5052843;28;20394;-65
2022/04/30 03:06:37;;;;;;;3.25;2.60;;;24.30;34.00;;;;;;5052007;28;20409;-65
2022/04/30 03:09:03;;;;;;;3.35;2.70;;;24.30;33.90;;;;;;5053204;28;20792;-65
2022/04/30 03:11:31;;;;;;;3.83;2.60;;;24.30;33.90;;;;;;5053105;28;20932;-65
2022/04/30 03:13:57;;;;;;;3.42;2.50;;;24.30;33.90;;;;;;5052731;28;20472;-65
2022/04/30 03:21:53;;;;;;;3.22;2.70;;;24.30;34.00;;;;;;5052786;28;20439;-65
2022/04/30 03:24:19;;;;;;;3.28;2.80;;;24.30;34.10;;;;;;5052940;28;20385;-65
2022/04/30 03:26:49;;;;;;;2.85;2.50;;;24.30;33.90;;;;;;5053100;28;20385;-65
2022/04/30 03:29:15;;;;;;;3.70;2.63;;;24.30;33.90;;;;;;5052830;28;20937;-65
2022/04/30 03:31:42;;;;;;;3.50;2.90;;;24.30;33.90;;;;;;5052953;28;20397;-70
2022/04/30 03:34:15;;;;;;;3.50;2.63;;;24.30;33.90;;;;;;5052231;28;21275;-69
2022/04/30 03:36:42;;;;;;;3.47;2.60;;;24.30;33.80;;;;;;5052830;28;20435;-70
2022/04/30 03:39:09;;;;;;;3.40;2.40;;;24.30;33.90;;;;;;5052479;28;20444;-65
2022/04/30 03:41:35;;;;;;;3.15;2.63;;;24.20;33.80;;;;;;5051357;28;20909;-66
2022/04/30 03:44:02;;;;;;;2.90;2.60;;;24.30;33.90;;;;;;5052171;28;20794;-65
2022/04/30 03:46:28;;;;;;;3.58;2.63;;;24.30;33.90;;;;;;5051183;28;20401;-65
2022/04/30 03:48:56;;;;;;;3.17;2.50;;;24.20;33.80;;;;;;5052540;28;20392;-66
2022/04/30 03:51:22;;;;;;;3.72;2.70;;;24.20;33.80;;;;;;5051173;28;21070;-64
2022/04/30 03:53:48;;;;;;;9.23;2.80;;;24.20;33.80;;;;;;5052423;28;20389;-65
2022/04/30 03:56:17;;;;;;;3.00;2.70;;;24.20;33.80;;;;;;5050834;28;20953;-65
2022/04/30 03:58:43;;;;;;;3.45;2.70;;;24.20;33.80;;;;;;5052289;28;20429;-65
2022/04/30 04:01:10;;;;;;;3.13;2.50;;;24.20;33.90;;;;;;5051963;28;20401;-66
2022/04/30 04:03:36;;;;;;;5.72;2.60;;;24.20;33.90;;;;;;5052261;28;20385;-67
2022/04/30 04:06:02;;;;;;;3.57;2.70;;;24.20;33.90;;;;;;5050506;28;20405;-66
2022/04/30 04:08:28;;;;;;;3.90;2.63;;;24.20;33.90;;;;;;5052147;28;20409;-65
2022/04/30 04:10:55;;;;;;;3.65;2.65;;;24.20;34.00;;;;;;5051868;28;20412;-65
2022/04/30 04:18:54;;;;;;;2.92;2.53;;;24.20;33.90;;;;;;5051828;28;20896;-65
2022/04/30 04:21:21;;;;;;;3.13;2.65;;;24.20;33.90;;;;;;5051857;28;20897;-65
2022/04/30 04:26:31;;;;;;;3.55;2.47;;;24.20;33.90;;;;;;5051885;28;20384;-67
2022/04/30 04:28:56;;;;;;;2.83;2.55;;;24.20;33.90;;;;;;5051752;28;20781;-65
2022/04/30 04:31:22;;;;;;;3.43;2.80;;;24.20;33.90;;;;;;5051483;28;20385;-65
2022/04/30 04:33:49;;;;;;;4.95;2.45;;;24.10;34.70;;;;;;5051482;28;20382;-65
2022/04/30 04:36:16;;;;;;;5.55;2.70;;;24.10;34.10;;;;;;5051082;28;20413;-65
2022/04/30 04:38:42;;;;;;;5.55;2.58;;;24.10;34.10;;;;;;5051572;28;20398;-64
2022/04/30 04:41:08;;;;;;;3.25;2.60;;;24.10;34.10;;;;;;5051593;28;20398;-65
2022/04/30 04:43:33;;;;;;;4.37;2.70;;;24.10;34.20;;;;;;5051482;28;20386;-65
2022/04/30 04:46:03;;;;;;;3.33;2.40;;;24.10;34.20;;;;;;5049878;28;20492;-64
2022/04/30 04:48:29;;;;;;;5.05;2.53;;;24.10;34.20;;;;;;5051522;28;20378;-64
2022/04/30 04:50:55;;;;;;;3.55;2.65;;;24.10;34.20;;;;;;5051510;28;20385;-65
2022/04/30 04:53:21;;;;;;;3.90;2.70;;;24.10;34.20;;;;;;5051449;28;20415;-65
2022/04/30 04:55:47;;;;;;;4.25;2.90;;;24.10;34.10;;;;;;5051311;28;20397;-64
2022/04/30 04:58:13;;;;;;;3.90;2.50;;;24.10;34.10;;;;;;5049735;28;20928;-65
2022/04/30 05:00:39;;;;;;;5.30;2.90;;;24.10;34.10;;;;;;5051206;28;20413;-65
2022/04/30 05:03:05;;;;;;;3.55;2.75;;;24.10;34.10;;;;;;5051345;28;20741;-65
2022/04/30 05:05:30;;;;;;;4.30;2.80;;;24.10;34.00;;;;;;5051304;28;20390;-65
2022/04/30 05:07:56;;;;;;;5.13;2.83;;;24.10;34.00;;;;;;5051087;28;20381;-64
2022/04/30 05:10:22;;;;;;;3.85;2.90;;;24.10;34.00;;;;;;5050837;28;20416;-64
2022/04/30 05:12:48;;;;;;;3.50;2.50;;;24.10;34.00;;;;;;5051307;28;20435;-65
2022/04/30 05:15:14;;;;;;;3.60;2.80;;;24.10;34.00;;;;;;5051108;28;20762;-64
2022/04/30 05:17:39;;;;;;;3.30;2.40;;;24.10;33.90;;;;;;5051238;28;20472;-65
2022/04/30 05:20:06;;;;;;;3.40;2.60;;;24.10;34.00;;;;;;5050540;28;20500;-65
2022/04/30 05:22:33;;;;;;;3.97;2.60;;;24.10;34.00;;;;;;5051015;28;20389;-65
2022/04/30 05:24:59;;;;;;;3.90;2.77;;;24.20;34.00;;;;;;5053597;28;20874;-64
2022/04/30 05:27:24;;;;;;;3.43;2.70;;;24.10;34.00;;;;;;5055077;28;20381;-65
2022/04/30 05:29:50;;;;;;;3.53;2.70;;;24.10;34.00;;;;;;5055129;28;20941;-64
2022/04/30 05:32:16;;;;;;;4.00;2.63;;;24.10;34.00;;;;;;5054284;28;20389;-65
2022/04/30 05:34:42;;;;;;;3.22;2.78;;;24.20;34.10;;;;;;5055122;28;20393;-64
2022/04/30 05:37:07;;;;;;;3.50;2.70;;;24.20;34.10;;;;;;5054848;28;20385;-66
2022/04/30 05:39:33;;;;;;;3.65;2.67;;;24.10;34.00;;;;;;5054892;28;20474;-64
2022/04/30 05:41:58;;;;;;;4.20;2.70;;;24.10;34.00;;;;;;5054684;28;20385;-64
2022/04/30 05:44:24;;;;;;;3.47;2.53;;;24.20;34.00;;;;;;5054560;28;20823;-65
2022/04/30 05:46:50;;;;;;;4.40;2.70;;;24.10;34.00;;;;;;5054801;28;20394;-65
2022/04/30 05:49:15;;;;;;;4.17;2.93;;;24.10;34.00;;;;;;5054744;28;20424;-65
2022/04/30 05:51:41;;;;;;;3.00;2.70;;;24.10;34.00;;;;;;5054721;28;20428;-65
2022/04/30 05:54:07;;;;;;;3.63;2.73;;;24.10;34.00;;;;;;5054154;28;20927;-64
2022/04/30 05:56:33;;;;;;;4.28;2.78;;;24.10;34.00;;;;;;5054629;28;20400;-65
2022/04/30 05:58:59;;;;;;;3.38;2.75;;;24.10;34.00;;;;;;5054527;28;20885;-65
2022/04/30 06:01:25;;;;;;;3.90;2.72;;;24.10;34.00;;;;;;5060650;28;20434;-65
2022/04/30 06:03:51;;;;;;;3.87;2.77;;;24.10;34.00;;;;;;5049522;28;20469;-64
2022/04/30 06:06:19;;;;;;;3.40;2.70;;;24.20;34.00;;;;;;5049700;28;20506;-65
2022/04/30 06:08:46;;;;;;;3.20;2.78;;;24.10;34.00;;;;;;5048255;28;20441;-66
2022/04/30 06:11:12;;;;;;;3.03;2.70;;;24.10;34.00;;;;;;5053526;28;20417;-64
2022/04/30 06:13:38;;;;;;;3.00;2.60;;;24.10;34.10;;;;;;5054397;28;20385;-65
2022/04/30 06:16:03;;;;;;;4.30;2.80;;;24.10;34.10;;;;;;5053794;28;20760;-65
2022/04/30 06:18:29;;;;;;;15.98;3.13;;;24.10;34.20;;;;;;5054145;28;20381;-65
2022/04/30 06:20:55;;;;;;;5.57;2.80;;;24.20;34.70;;;;;;5054035;28;20559;-65
2022/04/30 06:23:21;;;;;;;9.07;2.93;;;24.20;33.80;;;;;;5054102;28;20754;-69
2022/04/30 06:25:46;;;;;;;4.75;2.63;;;24.00;34.10;;;;;;5054038;28;20837;-66
2022/04/30 06:28:13;;;;;;;5.55;3.00;;;24.00;33.80;;;;;;5052271;28;20398;-65
2022/04/30 06:30:40;;;;;;;5.40;3.10;;;24.10;34.30;;;;;;5054116;28;20389;-65
2022/04/30 06:33:06;;;;;;;6.13;3.17;;;24.10;35.00;;;;;;5053917;28;20404;-66
2022/04/30 06:35:32;;;;;;;6.07;3.10;;;24.00;34.40;;;;;;5053129;28;20463;-65
2022/04/30 06:37:58;;;;;;;12.52;3.28;;;24.00;35.10;;;;;;5053897;28;20873;-67
2022/04/30 06:40:24;;;;;;;10.32;3.08;;;24.00;35.30;;;;;;5058649;28;20431;-66
2022/04/30 06:42:50;;;;;;;12.88;3.35;;;24.10;35.20;;;;;;5059167;28;20382;-68
2022/04/30 06:45:17;;;;;;;6.07;3.40;;;24.10;35.20;;;;;;5053516;28;20392;-67
2022/04/30 06:47:43;;;;;;;9.07;3.05;;;24.10;35.30;;;;;;5053721;28;20389;-67
2022/04/30 06:50:10;;;;;;;7.03;3.20;;;24.20;36.00;;;;;;5053147;28;20397;-66
2022/04/30 06:57:07;;;;;;;9.32;3.15;;;24.20;35.30;;;;;;5053622;28;20385;-66
2022/04/30 06:58:09;;;;;;;8.23;3.00;;;24.20;35.40;;;;;;5052928;28;20388;-66
2022/04/30 07:03:22;;;;;;;12.70;3.20;;;24.20;35.50;;;;;;5053598;28;20522;-66
2022/04/30 07:05:51;;;;;;;9.53;3.30;;;24.10;35.70;;;;;;5053104;28;20385;-65
2022/04/30 07:08:17;;;;;;;7.78;2.90;;;24.10;35.70;;;;;;5051406;28;20484;-66
2022/04/30 07:10:43;;;;;;;8.88;3.10;;;24.10;35.60;;;;;;5053107;28;20504;-67
2022/04/30 07:13:08;;;;;;;9.00;3.10;;;24.10;35.60;;;;;;5053124;28;20424;-66
2022/04/30 07:15:34;;;;;;;6.53;3.00;;;24.00;35.80;;;;;;5053142;28;20382;-66
2022/04/30 07:17:59;;;;;;;4.60;3.20;;;24.00;36.00;;;;;;5052717;28;20414;-67
2022/04/30 07:20:25;;;;;;;8.10;3.20;;;24.00;36.00;;;;;;5051765;28;20470;-65
2022/04/30 07:22:51;;;;;;;7.23;3.50;;;24.10;36.40;;;;;;5052903;28;20389;-67
2022/04/30 07:25:17;;;;;;;9.93;3.33;;;24.10;36.30;;;;;;5052762;28;20476;-65
2022/04/30 07:27:43;;;;;;;7.43;3.60;;;24.20;36.50;;;;;;5052838;28;20389;-66
2022/04/30 07:30:08;;;;;;;6.83;3.17;;;24.20;36.00;;;;;;5052259;28;20866;-65
2022/04/30 07:32:34;;;;;;;12.25;3.75;;;24.20;36.10;;;;;;5046672;28;20391;-66
2022/04/30 07:34:59;;;;;;;9.60;3.08;;;24.20;36.10;;;;;;5042898;28;20428;-65
2022/04/30 07:37:25;;;;;;;7.77;3.00;;;24.30;35.90;;;;;;5043036;28;20743;-65
2022/04/30 07:39:51;;;;;;;6.20;3.28;;;24.30;36.00;;;;;;5039911;28;20418;-65
2022/04/30 07:42:16;;;;;;;4.97;3.10;;;24.30;35.80;;;;;;5041395;28;20424;-65
2022/04/30 07:44:42;;;;;;;6.00;3.00;;;24.30;35.70;;;;;;5050631;28;20464;-66
2022/04/30 07:47:08;;;;;;;8.43;3.30;;;24.30;35.90;;;;;;5052398;28;20382;-67
2022/04/30 07:49:34;;;;;;;4.72;3.00;;;24.40;36.00;;;;;;5051255;28;20401;-66
2022/04/30 07:52:00;;;;;;;4.00;2.90;;;24.40;36.10;;;;;;5052379;28;20389;-66
2022/04/30 07:54:26;;;;;;;5.73;3.10;;;24.30;35.80;;;;;;5051855;28;20394;-68
2022/04/30 07:56:54;;;;;;;4.55;2.95;;;24.30;35.60;;;;;;5052532;28;20412;-66
2022/04/30 07:59:21;;;;;;;4.93;3.17;;;24.40;35.80;;;;;;5052275;28;20816;-65
2022/04/30 08:01:47;;;;;;;5.47;3.10;;;24.40;36.10;;;;;;5052273;28;20432;-66
2022/04/30 08:04:13;;;;;;;4.50;2.88;;;24.40;35.80;;;;;;5051581;28;20412;-66
2022/04/30 08:06:38;;;;;;;4.15;2.72;;;24.40;36.00;;;;;;5052063;28;20402;-65
2022/04/30 08:09:04;;;;;;;5.53;3.00;;;24.30;35.80;;;;;;5051997;28;20813;-65
2022/04/30 08:11:30;;;;;;;4.65;3.03;;;24.30;35.70;;;;;;5051786;28;20413;-65
2022/04/30 08:13:55;;;;;;;4.35;2.88;;;24.40;35.70;;;;;;5051769;28;20381;-66
2022/04/30 08:16:21;;;;;;;4.70;3.03;;;24.40;35.60;;;;;;5051241;28;20397;-65
2022/04/30 08:18:47;;;;;;;4.30;3.05;;;24.40;35.60;;;;;;5051946;28;20821;-65
2022/04/30 08:21:12;;;;;;;4.00;3.13;;;24.50;35.40;;;;;;5051867;28;20870;-66
2022/04/30 08:23:38;;;;;;;4.43;2.75;;;24.60;35.40;;;;;;5051829;28;20731;-65
2022/04/30 08:26:04;;;;;;;6.27;3.10;;;24.60;35.40;;;;;;5051719;28;20885;-65
2022/04/30 08:28:30;;;;;;;5.75;3.20;;;24.60;35.40;;;;;;5051347;28;20535;-65
2022/04/30 08:30:57;;;;;;;4.93;3.00;;;24.60;35.40;;;;;;5051733;28;20459;-65
2022/04/30 08:33:23;;;;;;;6.53;3.07;;;24.60;35.40;;;;;;5051393;28;20444;-65
2022/04/30 08:35:49;;;;;;;4.28;2.90;;;24.70;35.50;;;;;;5051391;28;20397;-65
2022/04/30 08:38:15;;;;;;;5.57;3.00;;;24.70;35.40;;;;;;5051040;28;20393;-65
2022/04/30 08:40:42;;;;;;;4.83;2.90;;;24.70;35.30;;;;;;5051622;28;20409;-65
2022/04/30 08:43:12;;;;;;;4.50;2.72;;;24.80;35.10;;;;;;5051484;28;20476;-65
2022/04/30 08:45:39;;;;;;;4.70;2.83;;;24.90;35.10;;;;;;5051463;28;20878;-65
2022/04/30 08:48:10;;;;;;;4.23;2.97;;;25.00;35.20;;;;;;5051489;28;20423;-65
2022/04/30 08:50:37;;;;;;;5.38;3.10;;;25.00;35.10;;;;;;5051189;28;20389;-65
2022/04/30 08:53:03;;;;;;;8.20;3.30;;;25.10;35.10;;;;;;5051318;28;20386;-65
2022/04/30 08:55:29;;;;;;;7.20;3.00;;;25.20;35.20;;;;;;5050114;28;20401;-66
2022/04/30 08:57:54;;;;;;;8.45;2.95;;;25.20;35.80;;;;;;5051398;28;20396;-66
2022/04/30 09:00:20;;;;;;;7.13;3.10;;;25.20;36.10;;;;;;5049089;28;20425;-65
2022/04/30 09:02:59;;;;;;;5.20;3.58;;;25.20;35.60;;;;;;5051406;28;20396;-67
2022/04/30 09:05:32;;;;;;;6.90;3.53;;;25.30;35.60;;;;;;5051228;28;20476;-65
2022/04/30 09:07:59;;;;;;;10.03;3.53;;;25.30;36.40;;;;;;5050023;28;20481;-66
2022/04/30 09:10:31;;;;;;;7.47;3.78;;;25.30;36.30;;;;;;5050589;28;20401;-68
2022/04/30 09:13:14;;;;;;;8.98;3.30;;;25.40;36.60;;;;;;5051207;28;20382;-67
2022/04/30 09:15:44;;;;;;;8.10;3.78;;;25.50;36.50;;;;;;5051165;28;20393;-67
2022/04/30 09:18:11;;;;;;;7.65;3.95;;;25.50;36.60;;;;;;5050865;28;20443;-67
2022/04/30 09:20:47;;;;;;;9.43;3.70;;;25.60;36.60;;;;;;5050885;28;20421;-68
2022/04/30 09:23:31;;;;;;;6.28;3.80;;;25.60;36.80;;;;;;5051033;28;20435;-68
2022/04/30 09:25:58;;;;;;;7.20;4.00;;;25.70;36.70;;;;;;5051105;28;20929;-68
2022/04/30 09:28:37;;;;;;;7.40;4.37;;;25.70;36.50;;;;;;5048987;28;20966;-68
2022/04/30 09:31:11;;;;;;;10.55;4.45;;;25.70;36.00;;;;;;5050873;28;20421;-69
2022/04/30 09:33:50;;;;;;;6.80;4.23;;;25.70;35.60;;;;;;5050734;28;20404;-69
2022/04/30 09:39:20;;;;;;;10.07;4.70;;;25.70;35.50;;;;;;5050119;28;20500;-66
2022/04/30 09:41:46;;;;;;;7.50;4.68;;;25.70;35.70;;;;;;5050895;28;20397;-65
2022/04/30 09:44:14;;;;;;;7.53;4.63;;;25.80;35.40;;;;;;5050615;28;20385;-65
2022/04/30 09:46:40;;;;;;;7.07;4.40;;;25.80;35.40;;;;;;5050628;28;20397;-67
2022/04/30 09:54:40;;;;;;;5.43;4.00;;;25.80;35.20;;;;;;5050801;28;20734;-65
2022/04/30 09:57:07;;;;;;;6.78;4.10;;;25.80;35.10;;;;;;5050698;28;20389;-66
2022/04/30 09:59:44;;;;;;;5.53;4.22;;;25.90;35.10;;;;;;5051059;28;20405;-65
2022/04/30 10:02:10;;;;;;;6.13;4.60;;;25.80;35.00;;;;;;5032741;28;20485;-65
2022/04/30 10:04:36;;;;;;;6.85;4.50;;;25.90;34.60;;;;;;5028536;28;20435;-66
2022/04/30 10:07:04;;;;;;;6.25;4.38;;;25.90;34.40;;;;;;5030800;28;20487;-66
2022/04/30 10:10:13;;;;;;;6.93;3.90;;;25.90;34.50;;;;;;5030660;28;20427;-65
2022/04/30 10:12:52;;;;;;;4.72;3.75;;;25.90;34.50;;;;;;5033200;28;20449;-65
2022/04/30 10:15:31;;;;;;;5.40;3.83;;;25.90;34.60;;;;;;5034320;28;20922;-66
2022/04/30 10:17:57;;;;;;;6.10;3.90;;;25.90;34.60;;;;;;5034208;28;20387;-66
2022/04/30 10:20:32;;;;;;;4.93;3.67;;;25.90;34.80;;;;;;5033623;28;20446;-66
2022/04/30 10:23:02;;;;;;;4.90;3.67;;;25.90;34.90;;;;;;5032879;28;20754;-66
2022/04/30 10:25:47;;;;;;;5.13;3.80;;;25.90;35.50;;;;;;5032731;28;20398;-68
2022/04/30 10:28:16;;;;;;;5.47;3.53;;;26.00;34.90;;;;;;5033797;28;20426;-66
2022/04/30 10:30:58;;;;;;;5.57;3.80;;;26.00;35.20;;;;;;5033885;28;20488;-66
2022/04/30 10:33:23;;;;;;;5.47;3.30;;;26.00;35.20;;;;;;5034212;28;20405;-70
2022/04/30 10:35:49;;;;;;;5.83;3.70;;;26.00;35.50;;;;;;5034027;28;20879;-67
2022/04/30 10:38:18;;;;;;;7.00;3.67;;;26.00;35.40;;;;;;5033582;28;20383;-66
2022/04/30 10:40:57;;;;;;;8.52;3.50;;;26.00;35.10;;;;;;5033447;28;20419;-67
2022/04/30 10:43:26;;;;;;;7.95;3.85;;;26.00;35.30;;;;;;5032786;28;20887;-69
2022/04/30 10:45:53;;;;;;;8.38;3.58;;;26.00;36.10;;;;;;5031820;28;20403;-70
2022/04/30 10:48:20;;;;;;;11.77;3.90;;;26.00;37.00;;;;;;5032415;28;20408;-70
2022/04/30 10:51:10;;;;;;;14.40;4.43;;;26.00;36.50;;;;;;5031838;28;20387;-71
2022/04/30 10:53:39;;;;;;;14.75;5.00;;;26.00;36.00;;;;;;5033136;28;20466;-67
2022/04/30 10:56:06;;;;;;;21.75;4.70;;;26.00;35.70;;;;;;5033312;28;20449;-69
2022/04/30 10:58:32;;;;;;;11.77;4.55;;;26.00;36.10;;;;;;5032882;28;20375;-71
2022/04/30 11:01:10;;;;;;;15.27;4.80;;;26.00;36.70;;;;;;5033333;28;20771;-71
2022/04/30 11:03:35;;;;;;;15.55;5.57;;;26.00;35.80;;;;;;5033526;28;20720;-66
2022/04/30 11:06:01;;;;;;;16.60;5.80;;;26.00;35.00;;;;;;5033421;28;20931;-69
2022/04/30 11:08:27;;;;;;;19.63;6.20;;;26.10;35.00;;;;;;5032233;28;20383;-66
2022/04/30 11:10:54;;;;;;;17.88;5.90;;;26.10;35.50;;;;;;5033099;28;20486;-66
2022/04/30 11:13:20;;;;;;;16.85;6.10;;;26.10;35.60;;;;;;5033315;28;20398;-67
2022/04/30 11:15:47;;;;;;;22.13;6.00;;;26.10;35.20;;;;;;5033217;28;20387;-71
2022/04/30 11:18:13;;;;;;;16.75;5.35;;;26.10;36.00;;;;;;5032798;28;20387;-70
2022/04/30 11:20:39;;;;;;;14.18;5.25;;;26.10;36.10;;;;;;5032337;28;20422;-71
2022/04/30 11:23:05;;;;;;;15.17;5.17;;;26.00;35.90;;;;;;5031184;28;20391;-71
2022/04/30 11:25:39;;;;;;;10.88;5.05;;;26.00;36.10;;;;;;5033047;28;20428;-69
2022/04/30 11:28:09;;;;;;;13.00;5.07;;;25.90;36.60;;;;;;5032261;28;20418;-67
2022/04/30 11:30:39;;;;;;;12.43;5.10;;;25.90;35.90;;;;;;5032234;28;20383;-71
2022/04/30 11:33:05;;;;;;;11.07;4.60;;;25.90;35.90;;;;;;5032817;28;20391;-70
2022/04/30 11:35:31;;;;;;;11.35;5.00;;;26.00;36.50;;;;;;5031897;28;20398;-71
2022/04/30 11:37:57;;;;;;;9.93;4.70;;;25.90;36.60;;;;;;5032059;28;20387;-71
2022/04/30 11:40:23;;;;;;;9.75;4.55;;;25.90;36.60;;;;;;5031840;28;20403;-65
2022/04/30 11:43:00;;;;;;;10.57;4.60;;;25.90;37.30;;;;;;5032375;28;20446;-69
2022/04/30 11:45:29;;;;;;;10.63;4.95;;;25.90;37.30;;;;;;5032428;28;20477;-70
2022/04/30 11:48:01;;;;;;;65.95;12.70;;;25.90;37.90;;;;;;5032627;28;20623;-71
2022/04/30 11:50:28;;;;;;;56.58;10.50;;;25.80;40.30;;;;;;5031530;28;20375;-72
2022/04/30 11:52:54;;;;;;;18.50;6.20;;;25.80;38.70;;;;;;5032763;28;20854;-68
2022/04/30 11:55:21;;;;;;;12.68;5.28;;;25.80;38.30;;;;;;5032332;28;20387;-70
2022/04/30 11:57:48;;;;;;;15.73;4.65;;;25.80;38.20;;;;;;5107558;22;20449;-65
2022/04/30 12:00:16;;;;;;;14.65;5.05;;;25.80;38.20;;;;;;5049742;22;20435;-72
2022/04/30 12:02:46;;;;;;;13.48;4.97;;;25.80;37.50;;;;;;5034910;28;20396;-65
2022/04/30 12:05:12;;;;;;;11.63;4.80;;;25.90;37.30;;;;;;5075464;22;20433;-65
2022/04/30 12:07:43;;;;;;;11.52;4.60;;;25.90;37.60;;;;;;5063317;28;20386;-65
2022/04/30 12:10:20;;;;;;;9.75;4.78;;;25.90;37.30;;;;;;5071860;22;20405;-65
2022/04/30 12:12:47;;;;;;;12.50;4.50;;;25.90;37.00;;;;;;5018849;28;20476;-65
2022/04/30 12:15:22;;;;;;;10.55;4.38;;;25.80;37.40;;;;;;5017894;28;20397;-66
2022/04/30 12:26:09;;;;;;;9.38;4.40;;;25.80;37.00;;;;;;5000094;28;20754;-69
2022/04/30 12:28:48;;;;;;;9.15;4.10;;;25.80;37.10;;;;;;5002889;28;20937;-70
2022/04/30 12:31:14;;;;;;;10.38;4.45;;;25.80;37.30;;;;;;5009304;28;20389;-70
2022/04/30 12:33:48;;;;;;;11.25;4.40;;;25.80;37.10;;;;;;5011293;28;20850;-69
2022/04/30 12:36:15;;;;;;;10.48;4.63;;;25.90;37.20;;;;;;5011049;28;20727;-70
2022/04/30 12:38:52;;;;;;;8.60;4.50;;;25.80;37.00;;;;;;5009403;28;20409;-72
2022/04/30 12:41:18;;;;;;;11.63;4.40;;;25.80;38.10;;;;;;5003112;28;20458;-72
2022/04/30 12:43:44;;;;;;;8.63;5.07;;;25.90;37.10;;;;;;5002556;28;20445;-70
2022/04/30 12:46:21;;;;;;;10.40;5.10;;;25.90;36.80;;;;;;5003865;28;20401;-70
2022/04/30 12:48:47;;;;;;;9.48;4.60;;;25.90;36.70;;;;;;4998534;28;20418;-72
2022/04/30 12:51:14;;;;;;;9.40;4.80;;;25.90;37.40;;;;;;5007952;28;20410;-72
2022/04/30 12:53:40;;;;;;;16.88;7.78;;;25.90;37.20;;;;;;5004780;28;20431;-72
2022/04/30 12:56:05;;;;;;;34.87;11.83;;;25.90;38.70;;;;;;5010263;28;20857;-68
2022/04/30 12:58:31;;;;;;;23.58;8.70;;;25.90;43.30;;;;;;5007798;28;20407;-72
2022/04/30 13:00:57;;;;;;;17.70;8.50;;;26.00;42.10;;;;;;4999304;28;20422;-73
2022/04/30 13:03:23;;;;;;;19.45;8.32;;;26.00;41.50;;;;;;4996903;28;20409;-72
2022/04/30 13:05:49;;;;;;;20.30;8.40;;;26.00;41.60;;;;;;5007031;28;20499;-73
2022/04/30 13:08:15;;;;;;;18.10;7.73;;;26.00;42.30;;;;;;5007115;28;20495;-73
2022/04/30 13:13:31;;;;;;;16.83;7.47;;;26.10;44.00;;;;;;5003972;28;21035;-67
2022/04/30 13:15:57;;;;;;;18.20;7.60;;;26.10;41.70;;;;;;5007005;28;20404;-65
2022/04/30 13:18:23;;;;;;;25.17;9.10;;;26.10;43.60;;;;;;5006698;28;20409;-67
2022/04/30 13:20:49;;;;;;;24.97;8.77;;;26.10;40.00;;;;;;4991675;28;20764;-72
2022/04/30 13:23:15;;;;;;;31.15;8.88;;;26.00;38.70;;;;;;4991921;28;20398;-65
2022/04/30 13:25:40;;;;;;;35.57;9.60;;;26.00;40.10;;;;;;4992515;28;20403;-65
2022/04/30 13:28:06;;;;;;;32.43;9.27;;;26.00;39.10;;;;;;4991259;28;20477;-65
2022/04/30 13:30:32;;;;;;;29.48;9.00;;;26.00;38.90;;;;;;4991207;28;20434;-67
2022/04/30 13:32:58;;;;;;;26.63;8.50;;;26.00;40.20;;;;;;4991625;28;20507;-69
2022/04/30 13:35:24;;;;;;;26.95;8.80;;;26.00;37.50;;;;;;4990889;28;20743;-66